sensor_id;sensor_type;location;lat;lon;timestamp;P1;durP1;ratioP1;P2;durP2;ratioP2
53879;SDS011;39791;53.184;5.486;2024-01-06T00:02:07;55.47;;;49.55;;
53879;SDS011;39791;53.184;5.486;2024-01-06T00:04:33;60.28;;;49.35;;
53879;SDS011;39791;53.184;5.486;2024-01-06T00:06:59;60.45;;;50.30;;
53879;SDS011;39791;53.184;5.486;2024-01-06T00:09:24;56.40;;;50.22;;
53879;SDS011;39791;53.184;5.486;2024-01-06T00:11:50;60.72;;;54.22;;
53879;SDS011;39791;53.184;5.486;2024-01-06T00:14:15;57.10;;;51.25;;
53879;SDS011;39791;53.184;5.486;2024-01-06T00:16:41;58.80;;;52.65;;
53879;SDS011;39791;53.184;5.486;2024-01-06T00:19:06;57.42;;;51.47;;
53879;SDS011;39791;53.184;5.486;2024-01-06T00:21:32;56.95;;;51.10;;
53879;SDS011;39791;53.184;5.486;2024-01-06T00:23:58;58.33;;;51.17;;
53879;SDS011;39791;53.184;5.486;2024-01-06T00:26:23;56.75;;;50.78;;
53879;SDS011;39791;53.184;5.486;2024-01-06T00:28:52;55.92;;;48.20;;
53879;SDS011;39791;53.184;5.486;2024-01-06T00:31:17;56.60;;;50.30;;
53879;SDS011;39791;53.184;5.486;2024-01-06T00:33:43;60.95;;;54.17;;
53879;SDS011;39791;53.184;5.486;2024-01-06T00:36:09;59.90;;;53.40;;
53879;SDS011;39791;53.184;5.486;2024-01-06T00:38:35;59.90;;;53.58;;
53879;SDS011;39791;53.184;5.486;2024-01-06T00:41:01;62.63;;;56.55;;
53879;SDS011;39791;53.184;5.486;2024-01-06T00:43:26;60.25;;;54.00;;
53879;SDS011;39791;53.184;5.486;2024-01-06T00:45:52;53.90;;;48.05;;
53879;SDS011;39791;53.184;5.486;2024-01-06T00:48:18;58.72;;;52.42;;
53879;SDS011;39791;53.184;5.486;2024-01-06T00:50:43;56.33;;;50.58;;
53879;SDS011;39791;53.184;5.486;2024-01-06T00:53:09;56.58;;;50.97;;
53879;SDS011;39791;53.184;5.486;2024-01-06T00:55:34;56.25;;;50.63;;
53879;SDS011;39791;53.184;5.486;2024-01-06T00:58:00;60.35;;;52.50;;
53879;SDS011;39791;53.184;5.486;2024-01-06T01:00:25;58.40;;;52.40;;
53879;SDS011;39791;53.184;5.486;2024-01-06T01:02:52;62.60;;;50.97;;
53879;SDS011;39791;53.184;5.486;2024-01-06T01:05:18;58.67;;;52.25;;
53879;SDS011;39791;53.184;5.486;2024-01-06T01:07:43;60.33;;;53.22;;
53879;SDS011;39791;53.184;5.486;2024-01-06T01:10:09;56.42;;;49.38;;
53879;SDS011;39791;53.184;5.486;2024-01-06T01:12:35;61.88;;;50.17;;
53879;SDS011;39791;53.184;5.486;2024-01-06T01:15:01;55.97;;;50.38;;
53879;SDS011;39791;53.184;5.486;2024-01-06T01:17:27;58.22;;;52.58;;
53879;SDS011;39791;53.184;5.486;2024-01-06T01:19:52;60.72;;;53.38;;
53879;SDS011;39791;53.184;5.486;2024-01-06T01:22:18;59.10;;;53.00;;
53879;SDS011;39791;53.184;5.486;2024-01-06T01:24:43;59.92;;;53.60;;
53879;SDS011;39791;53.184;5.486;2024-01-06T01:27:09;58.03;;;51.17;;
53879;SDS011;39791;53.184;5.486;2024-01-06T01:29:35;54.60;;;48.67;;
53879;SDS011;39791;53.184;5.486;2024-01-06T01:32:00;56.95;;;50.67;;
53879;SDS011;39791;53.184;5.486;2024-01-06T01:34:26;58.28;;;50.60;;
53879;SDS011;39791;53.184;5.486;2024-01-06T01:36:52;59.90;;;50.88;;
53879;SDS011;39791;53.184;5.486;2024-01-06T01:39:17;52.47;;;47.13;;
53879;SDS011;39791;53.184;5.486;2024-01-06T01:41:43;51.85;;;46.47;;
53879;SDS011;39791;53.184;5.486;2024-01-06T01:44:08;58.85;;;49.97;;
53879;SDS011;39791;53.184;5.486;2024-01-06T01:46:34;53.95;;;48.50;;
53879;SDS011;39791;53.184;5.486;2024-01-06T01:49:00;56.88;;;51.53;;
53879;SDS011;39791;53.184;5.486;2024-01-06T01:51:27;56.65;;;51.03;;
53879;SDS011;39791;53.184;5.486;2024-01-06T01:53:55;55.35;;;49.63;;
53879;SDS011;39791;53.184;5.486;2024-01-06T01:56:22;52.35;;;46.95;;
53879;SDS011;39791;53.184;5.486;2024-01-06T01:58:49;55.33;;;49.35;;
53879;SDS011;39791;53.184;5.486;2024-01-06T02:01:15;53.22;;;48.00;;
53879;SDS011;39791;53.184;5.486;2024-01-06T02:03:42;55.25;;;49.50;;
53879;SDS011;39791;53.184;5.486;2024-01-06T02:06:10;55.38;;;49.72;;
53879;SDS011;39791;53.184;5.486;2024-01-06T02:08:36;55.03;;;49.53;;
53879;SDS011;39791;53.184;5.486;2024-01-06T02:11:02;57.47;;;51.70;;
53879;SDS011;39791;53.184;5.486;2024-01-06T02:13:35;57.20;;;51.80;;
53879;SDS011;39791;53.184;5.486;2024-01-06T02:16:02;54.47;;;49.35;;
53879;SDS011;39791;53.184;5.486;2024-01-06T02:18:29;55.85;;;50.10;;
53879;SDS011;39791;53.184;5.486;2024-01-06T02:20:57;54.63;;;49.15;;
53879;SDS011;39791;53.184;5.486;2024-01-06T02:23:23;54.75;;;49.35;;
53879;SDS011;39791;53.184;5.486;2024-01-06T02:25:49;52.38;;;46.92;;
53879;SDS011;39791;53.184;5.486;2024-01-06T02:28:14;50.67;;;45.22;;
53879;SDS011;39791;53.184;5.486;2024-01-06T02:30:40;50.70;;;44.75;;
53879;SDS011;39791;53.184;5.486;2024-01-06T02:33:06;48.55;;;43.45;;
53879;SDS011;39791;53.184;5.486;2024-01-06T02:35:31;52.40;;;47.03;;
53879;SDS011;39791;53.184;5.486;2024-01-06T02:37:57;54.40;;;48.47;;
53879;SDS011;39791;53.184;5.486;2024-01-06T02:40:22;49.15;;;44.65;;
53879;SDS011;39791;53.184;5.486;2024-01-06T02:42:48;60.72;;;54.72;;
53879;SDS011;39791;53.184;5.486;2024-01-06T02:45:13;52.42;;;47.20;;
53879;SDS011;39791;53.184;5.486;2024-01-06T02:47:39;53.50;;;48.17;;
53879;SDS011;39791;53.184;5.486;2024-01-06T02:50:05;47.97;;;43.20;;
53879;SDS011;39791;53.184;5.486;2024-01-06T02:52:31;47.67;;;42.78;;
53879;SDS011;39791;53.184;5.486;2024-01-06T02:54:56;48.08;;;43.53;;
53879;SDS011;39791;53.184;5.486;2024-01-06T02:57:22;45.38;;;40.97;;
53879;SDS011;39791;53.184;5.486;2024-01-06T02:59:48;50.13;;;44.92;;
53879;SDS011;39791;53.184;5.486;2024-01-06T03:02:13;54.15;;;48.28;;
53879;SDS011;39791;53.184;5.486;2024-01-06T03:04:39;52.22;;;47.00;;
53879;SDS011;39791;53.184;5.486;2024-01-06T03:07:04;50.55;;;45.55;;
53879;SDS011;39791;53.184;5.486;2024-01-06T03:09:30;51.00;;;45.85;;
53879;SDS011;39791;53.184;5.486;2024-01-06T03:11:55;50.92;;;45.90;;
53879;SDS011;39791;53.184;5.486;2024-01-06T03:14:21;54.38;;;47.38;;
53879;SDS011;39791;53.184;5.486;2024-01-06T03:16:47;51.85;;;47.15;;
53879;SDS011;39791;53.184;5.486;2024-01-06T03:19:12;50.78;;;45.40;;
53879;SDS011;39791;53.184;5.486;2024-01-06T03:21:38;50.25;;;44.88;;
53879;SDS011;39791;53.184;5.486;2024-01-06T03:24:04;46.45;;;41.85;;
53879;SDS011;39791;53.184;5.486;2024-01-06T03:26:29;51.55;;;46.45;;
53879;SDS011;39791;53.184;5.486;2024-01-06T03:28:55;47.85;;;42.88;;
53879;SDS011;39791;53.184;5.486;2024-01-06T03:31:21;47.50;;;42.42;;
53879;SDS011;39791;53.184;5.486;2024-01-06T03:33:47;47.60;;;42.70;;
53879;SDS011;39791;53.184;5.486;2024-01-06T03:36:13;46.10;;;41.35;;
53879;SDS011;39791;53.184;5.486;2024-01-06T03:38:40;48.45;;;43.58;;
53879;SDS011;39791;53.184;5.486;2024-01-06T03:41:06;52.67;;;47.40;;
53879;SDS011;39791;53.184;5.486;2024-01-06T03:43:32;47.25;;;42.22;;
53879;SDS011;39791;53.184;5.486;2024-01-06T03:45:58;48.75;;;42.95;;
53879;SDS011;39791;53.184;5.486;2024-01-06T03:48:25;47.33;;;42.63;;
53879;SDS011;39791;53.184;5.486;2024-01-06T03:50:50;52.70;;;47.28;;
53879;SDS011;39791;53.184;5.486;2024-01-06T03:53:16;55.65;;;50.47;;
53879;SDS011;39791;53.184;5.486;2024-01-06T03:55:42;47.88;;;43.03;;
53879;SDS011;39791;53.184;5.486;2024-01-06T03:58:08;53.42;;;48.10;;
53879;SDS011;39791;53.184;5.486;2024-01-06T04:00:33;52.63;;;47.38;;
53879;SDS011;39791;53.184;5.486;2024-01-06T04:02:59;49.15;;;44.63;;
53879;SDS011;39791;53.184;5.486;2024-01-06T04:05:24;51.40;;;46.65;;
53879;SDS011;39791;53.184;5.486;2024-01-06T04:07:50;49.83;;;44.75;;
53879;SDS011;39791;53.184;5.486;2024-01-06T04:10:16;46.17;;;41.42;;
53879;SDS011;39791;53.184;5.486;2024-01-06T04:12:41;44.55;;;40.00;;
53879;SDS011;39791;53.184;5.486;2024-01-06T04:15:07;48.38;;;43.78;;
53879;SDS011;39791;53.184;5.486;2024-01-06T04:17:33;44.35;;;39.95;;
53879;SDS011;39791;53.184;5.486;2024-01-06T04:19:58;46.88;;;41.97;;
53879;SDS011;39791;53.184;5.486;2024-01-06T04:22:24;49.08;;;43.95;;
53879;SDS011;39791;53.184;5.486;2024-01-06T04:24:49;53.33;;;47.63;;
53879;SDS011;39791;53.184;5.486;2024-01-06T04:27:15;53.50;;;48.45;;
53879;SDS011;39791;53.184;5.486;2024-01-06T04:29:41;52.85;;;45.78;;
53879;SDS011;39791;53.184;5.486;2024-01-06T04:32:06;54.10;;;48.72;;
53879;SDS011;39791;53.184;5.486;2024-01-06T04:34:32;51.15;;;46.20;;
53879;SDS011;39791;53.184;5.486;2024-01-06T04:36:58;51.83;;;46.25;;
53879;SDS011;39791;53.184;5.486;2024-01-06T04:39:24;53.00;;;46.30;;
53879;SDS011;39791;53.184;5.486;2024-01-06T04:41:49;51.47;;;45.97;;
53879;SDS011;39791;53.184;5.486;2024-01-06T04:44:16;50.88;;;45.55;;
53879;SDS011;39791;53.184;5.486;2024-01-06T04:46:44;50.25;;;45.55;;
53879;SDS011;39791;53.184;5.486;2024-01-06T04:49:10;48.13;;;41.63;;
53879;SDS011;39791;53.184;5.486;2024-01-06T04:51:36;51.55;;;45.90;;
53879;SDS011;39791;53.184;5.486;2024-01-06T04:54:01;51.35;;;46.40;;
53879;SDS011;39791;53.184;5.486;2024-01-06T04:56:27;50.25;;;45.25;;
53879;SDS011;39791;53.184;5.486;2024-01-06T04:58:52;54.28;;;48.75;;
53879;SDS011;39791;53.184;5.486;2024-01-06T05:01:18;50.53;;;45.05;;
53879;SDS011;39791;53.184;5.486;2024-01-06T05:03:43;51.70;;;46.35;;
53879;SDS011;39791;53.184;5.486;2024-01-06T05:06:09;48.00;;;43.10;;
53879;SDS011;39791;53.184;5.486;2024-01-06T05:08:35;46.50;;;41.45;;
53879;SDS011;39791;53.184;5.486;2024-01-06T05:11:03;51.28;;;46.20;;
53879;SDS011;39791;53.184;5.486;2024-01-06T05:13:30;49.45;;;44.50;;
53879;SDS011;39791;53.184;5.486;2024-01-06T05:15:55;51.25;;;46.15;;
53879;SDS011;39791;53.184;5.486;2024-01-06T05:18:21;56.78;;;47.70;;
53879;SDS011;39791;53.184;5.486;2024-01-06T05:20:46;50.83;;;45.60;;
53879;SDS011;39791;53.184;5.486;2024-01-06T05:23:12;53.47;;;48.20;;
53879;SDS011;39791;53.184;5.486;2024-01-06T05:25:38;53.00;;;47.88;;
53879;SDS011;39791;53.184;5.486;2024-01-06T05:28:03;47.97;;;42.95;;
53879;SDS011;39791;53.184;5.486;2024-01-06T05:30:29;62.08;;;46.90;;
53879;SDS011;39791;53.184;5.486;2024-01-06T05:32:55;49.03;;;43.60;;
53879;SDS011;39791;53.184;5.486;2024-01-06T05:35:21;51.28;;;45.97;;
53879;SDS011;39791;53.184;5.486;2024-01-06T05:37:46;53.45;;;47.75;;
53879;SDS011;39791;53.184;5.486;2024-01-06T05:40:12;51.50;;;45.58;;
53879;SDS011;39791;53.184;5.486;2024-01-06T05:42:39;49.58;;;44.55;;
53879;SDS011;39791;53.184;5.486;2024-01-06T05:45:05;52.65;;;47.38;;
53879;SDS011;39791;53.184;5.486;2024-01-06T05:47:31;51.05;;;46.25;;
53879;SDS011;39791;53.184;5.486;2024-01-06T05:49:57;55.92;;;50.22;;
53879;SDS011;39791;53.184;5.486;2024-01-06T05:52:22;51.97;;;45.67;;
53879;SDS011;39791;53.184;5.486;2024-01-06T05:54:48;52.63;;;42.33;;
53879;SDS011;39791;53.184;5.486;2024-01-06T05:57:14;52.95;;;45.05;;
53879;SDS011;39791;53.184;5.486;2024-01-06T05:59:40;57.30;;;42.30;;
53879;SDS011;39791;53.184;5.486;2024-01-06T06:02:06;55.97;;;50.13;;
53879;SDS011;39791;53.184;5.486;2024-01-06T06:04:31;50.38;;;45.38;;
53879;SDS011;39791;53.184;5.486;2024-01-06T06:06:57;49.72;;;44.10;;
53879;SDS011;39791;53.184;5.486;2024-01-06T06:09:22;51.85;;;45.47;;
53879;SDS011;39791;53.184;5.486;2024-01-06T06:11:48;53.00;;;47.15;;
53879;SDS011;39791;53.184;5.486;2024-01-06T06:14:13;51.70;;;46.35;;
53879;SDS011;39791;53.184;5.486;2024-01-06T06:16:39;50.92;;;43.75;;
53879;SDS011;39791;53.184;5.486;2024-01-06T06:19:04;53.33;;;43.05;;
53879;SDS011;39791;53.184;5.486;2024-01-06T06:21:31;52.30;;;47.25;;
53879;SDS011;39791;53.184;5.486;2024-01-06T06:23:56;50.83;;;43.85;;
53879;SDS011;39791;53.184;5.486;2024-01-06T06:26:22;57.70;;;45.03;;
53879;SDS011;39791;53.184;5.486;2024-01-06T06:28:47;55.40;;;45.15;;
53879;SDS011;39791;53.184;5.486;2024-01-06T06:31:13;53.63;;;47.80;;
53879;SDS011;39791;53.184;5.486;2024-01-06T06:33:39;51.35;;;45.85;;
53879;SDS011;39791;53.184;5.486;2024-01-06T06:36:04;53.90;;;48.42;;
53879;SDS011;39791;53.184;5.486;2024-01-06T06:38:31;50.38;;;44.83;;
53879;SDS011;39791;53.184;5.486;2024-01-06T06:40:56;50.75;;;45.47;;
53879;SDS011;39791;53.184;5.486;2024-01-06T06:43:22;49.80;;;44.78;;
53879;SDS011;39791;53.184;5.486;2024-01-06T06:45:47;48.15;;;42.92;;
53879;SDS011;39791;53.184;5.486;2024-01-06T06:48:13;49.42;;;44.28;;
53879;SDS011;39791;53.184;5.486;2024-01-06T06:50:38;45.78;;;40.90;;
53879;SDS011;39791;53.184;5.486;2024-01-06T06:53:06;48.20;;;42.78;;
53879;SDS011;39791;53.184;5.486;2024-01-06T06:55:31;47.42;;;42.67;;
53879;SDS011;39791;53.184;5.486;2024-01-06T06:57:57;50.83;;;45.28;;
53879;SDS011;39791;53.184;5.486;2024-01-06T07:00:22;49.22;;;44.20;;
53879;SDS011;39791;53.184;5.486;2024-01-06T07:02:48;51.13;;;46.00;;
53879;SDS011;39791;53.184;5.486;2024-01-06T07:05:14;50.67;;;45.15;;
53879;SDS011;39791;53.184;5.486;2024-01-06T07:07:39;49.63;;;43.65;;
53879;SDS011;39791;53.184;5.486;2024-01-06T07:10:05;45.33;;;40.55;;
53879;SDS011;39791;53.184;5.486;2024-01-06T07:12:32;46.03;;;41.30;;
53879;SDS011;39791;53.184;5.486;2024-01-06T07:14:58;49.10;;;43.90;;
53879;SDS011;39791;53.184;5.486;2024-01-06T07:17:24;48.33;;;43.17;;
53879;SDS011;39791;53.184;5.486;2024-01-06T07:19:50;49.58;;;44.10;;
53879;SDS011;39791;53.184;5.486;2024-01-06T07:22:15;51.55;;;46.05;;
53879;SDS011;39791;53.184;5.486;2024-01-06T07:24:44;53.65;;;48.13;;
53879;SDS011;39791;53.184;5.486;2024-01-06T07:27:10;51.10;;;45.83;;
53879;SDS011;39791;53.184;5.486;2024-01-06T07:29:36;49.03;;;44.10;;
53879;SDS011;39791;53.184;5.486;2024-01-06T07:32:02;43.55;;;39.25;;
53879;SDS011;39791;53.184;5.486;2024-01-06T07:34:28;48.53;;;43.53;;
53879;SDS011;39791;53.184;5.486;2024-01-06T07:36:54;49.55;;;44.20;;
53879;SDS011;39791;53.184;5.486;2024-01-06T07:39:20;46.88;;;41.83;;
53879;SDS011;39791;53.184;5.486;2024-01-06T07:41:46;47.38;;;42.70;;
53879;SDS011;39791;53.184;5.486;2024-01-06T07:44:12;48.15;;;43.53;;
53879;SDS011;39791;53.184;5.486;2024-01-06T07:46:38;48.30;;;43.13;;
53879;SDS011;39791;53.184;5.486;2024-01-06T07:49:05;50.65;;;45.70;;
53879;SDS011;39791;53.184;5.486;2024-01-06T07:51:31;48.22;;;42.47;;
53879;SDS011;39791;53.184;5.486;2024-01-06T07:53:57;49.83;;;44.85;;
53879;SDS011;39791;53.184;5.486;2024-01-06T07:56:23;48.08;;;43.45;;
53879;SDS011;39791;53.184;5.486;2024-01-06T07:58:49;52.45;;;44.45;;
53879;SDS011;39791;53.184;5.486;2024-01-06T08:01:14;50.35;;;45.38;;
53879;SDS011;39791;53.184;5.486;2024-01-06T08:03:40;51.75;;;44.72;;
53879;SDS011;39791;53.184;5.486;2024-01-06T08:06:06;51.42;;;46.10;;
53879;SDS011;39791;53.184;5.486;2024-01-06T08:08:31;51.85;;;46.65;;
53879;SDS011;39791;53.184;5.486;2024-01-06T08:10:57;49.75;;;44.45;;
53879;SDS011;39791;53.184;5.486;2024-01-06T08:13:22;50.70;;;43.85;;
53879;SDS011;39791;53.184;5.486;2024-01-06T08:15:48;64.00;;;57.35;;
53879;SDS011;39791;53.184;5.486;2024-01-06T08:18:13;48.85;;;43.55;;
53879;SDS011;39791;53.184;5.486;2024-01-06T08:20:39;53.67;;;47.47;;
53879;SDS011;39791;53.184;5.486;2024-01-06T08:23:05;48.20;;;42.78;;
53879;SDS011;39791;53.184;5.486;2024-01-06T08:25:30;47.67;;;42.22;;
53879;SDS011;39791;53.184;5.486;2024-01-06T08:27:56;47.80;;;42.65;;
53879;SDS011;39791;53.184;5.486;2024-01-06T08:30:21;47.33;;;42.45;;
53879;SDS011;39791;53.184;5.486;2024-01-06T08:32:48;49.72;;;44.20;;
53879;SDS011;39791;53.184;5.486;2024-01-06T08:35:14;49.42;;;44.30;;
53879;SDS011;39791;53.184;5.486;2024-01-06T08:37:41;49.47;;;44.25;;
53879;SDS011;39791;53.184;5.486;2024-01-06T08:40:08;51.20;;;45.75;;
53879;SDS011;39791;53.184;5.486;2024-01-06T08:42:34;50.97;;;45.20;;
53879;SDS011;39791;53.184;5.486;2024-01-06T08:44:59;51.33;;;45.97;;
53879;SDS011;39791;53.184;5.486;2024-01-06T08:47:25;52.40;;;45.42;;
53879;SDS011;39791;53.184;5.486;2024-01-06T08:49:50;49.25;;;42.78;;
53879;SDS011;39791;53.184;5.486;2024-01-06T08:52:16;50.40;;;44.97;;
53879;SDS011;39791;53.184;5.486;2024-01-06T08:54:42;55.97;;;45.72;;
53879;SDS011;39791;53.184;5.486;2024-01-06T08:57:07;48.47;;;42.70;;
53879;SDS011;39791;53.184;5.486;2024-01-06T08:59:33;52.03;;;42.53;;
53879;SDS011;39791;53.184;5.486;2024-01-06T09:01:58;46.60;;;41.53;;
53879;SDS011;39791;53.184;5.486;2024-01-06T09:04:24;48.13;;;42.90;;
53879;SDS011;39791;53.184;5.486;2024-01-06T09:06:49;48.83;;;43.72;;
53879;SDS011;39791;53.184;5.486;2024-01-06T09:09:16;44.53;;;40.03;;
53879;SDS011;39791;53.184;5.486;2024-01-06T09:11:42;49.55;;;44.28;;
53879;SDS011;39791;53.184;5.486;2024-01-06T09:14:09;49.70;;;44.42;;
53879;SDS011;39791;53.184;5.486;2024-01-06T09:16:37;48.25;;;43.00;;
53879;SDS011;39791;53.184;5.486;2024-01-06T09:19:03;46.17;;;41.40;;
53879;SDS011;39791;53.184;5.486;2024-01-06T09:21:28;47.40;;;42.05;;
53879;SDS011;39791;53.184;5.486;2024-01-06T09:23:54;47.92;;;43.03;;
53879;SDS011;39791;53.184;5.486;2024-01-06T09:26:19;49.50;;;44.33;;
53879;SDS011;39791;53.184;5.486;2024-01-06T09:28:45;50.05;;;45.05;;
53879;SDS011;39791;53.184;5.486;2024-01-06T09:31:11;48.67;;;43.55;;
53879;SDS011;39791;53.184;5.486;2024-01-06T09:33:37;49.83;;;44.60;;
53879;SDS011;39791;53.184;5.486;2024-01-06T09:36:03;47.83;;;42.65;;
53879;SDS011;39791;53.184;5.486;2024-01-06T09:38:29;50.15;;;44.85;;
53879;SDS011;39791;53.184;5.486;2024-01-06T09:40:55;48.63;;;43.15;;
53879;SDS011;39791;53.184;5.486;2024-01-06T09:43:21;53.45;;;44.60;;
53879;SDS011;39791;53.184;5.486;2024-01-06T09:45:48;52.67;;;46.70;;
53879;SDS011;39791;53.184;5.486;2024-01-06T09:48:22;50.97;;;45.47;;
53879;SDS011;39791;53.184;5.486;2024-01-06T09:50:55;51.05;;;43.78;;
53879;SDS011;39791;53.184;5.486;2024-01-06T09:53:22;49.08;;;44.28;;
53879;SDS011;39791;53.184;5.486;2024-01-06T09:55:53;48.83;;;42.42;;
53879;SDS011;39791;53.184;5.486;2024-01-06T09:58:21;47.25;;;42.30;;
53879;SDS011;39791;53.184;5.486;2024-01-06T10:00:48;47.92;;;43.20;;
53879;SDS011;39791;53.184;5.486;2024-01-06T10:03:14;48.33;;;43.30;;
53879;SDS011;39791;53.184;5.486;2024-01-06T10:05:40;50.13;;;44.58;;
53879;SDS011;39791;53.184;5.486;2024-01-06T10:08:05;49.97;;;44.58;;
53879;SDS011;39791;53.184;5.486;2024-01-06T10:10:33;47.28;;;42.38;;
53879;SDS011;39791;53.184;5.486;2024-01-06T10:12:59;49.20;;;43.50;;
53879;SDS011;39791;53.184;5.486;2024-01-06T10:15:25;51.17;;;42.75;;
53879;SDS011;39791;53.184;5.486;2024-01-06T10:17:53;47.80;;;42.60;;
53879;SDS011;39791;53.184;5.486;2024-01-06T10:20:19;54.05;;;46.05;;
53879;SDS011;39791;53.184;5.486;2024-01-06T10:22:46;53.38;;;42.08;;
53879;SDS011;39791;53.184;5.486;2024-01-06T10:25:12;45.13;;;40.47;;
53879;SDS011;39791;53.184;5.486;2024-01-06T10:27:38;47.92;;;42.47;;
53879;SDS011;39791;53.184;5.486;2024-01-06T10:30:05;52.58;;;41.10;;
53879;SDS011;39791;53.184;5.486;2024-01-06T10:32:32;45.20;;;40.58;;
53879;SDS011;39791;53.184;5.486;2024-01-06T10:34:58;45.58;;;39.40;;
53879;SDS011;39791;53.184;5.486;2024-01-06T10:37:26;52.03;;;42.72;;
53879;SDS011;39791;53.184;5.486;2024-01-06T10:40:06;52.33;;;45.10;;
53879;SDS011;39791;53.184;5.486;2024-01-06T10:42:35;49.80;;;43.83;;
53879;SDS011;39791;53.184;5.486;2024-01-06T10:45:03;47.85;;;40.92;;
53879;SDS011;39791;53.184;5.486;2024-01-06T10:47:33;50.25;;;43.72;;
53879;SDS011;39791;53.184;5.486;2024-01-06T10:50:00;46.00;;;41.17;;
53879;SDS011;39791;53.184;5.486;2024-01-06T10:52:26;44.80;;;39.65;;
53879;SDS011;39791;53.184;5.486;2024-01-06T10:54:53;47.35;;;39.55;;
53879;SDS011;39791;53.184;5.486;2024-01-06T10:57:20;43.50;;;38.90;;
53879;SDS011;39791;53.184;5.486;2024-01-06T10:59:47;47.28;;;42.15;;
53879;SDS011;39791;53.184;5.486;2024-01-06T11:02:15;44.83;;;40.08;;
53879;SDS011;39791;53.184;5.486;2024-01-06T11:04:47;48.85;;;43.58;;
53879;SDS011;39791;53.184;5.486;2024-01-06T11:07:13;50.13;;;43.13;;
53879;SDS011;39791;53.184;5.486;2024-01-06T11:10:27;44.38;;;39.58;;
53879;SDS011;39791;53.184;5.486;2024-01-06T11:12:43;47.97;;;42.47;;
53879;SDS011;39791;53.184;5.486;2024-01-06T11:15:09;44.17;;;39.35;;
53879;SDS011;39791;53.184;5.486;2024-01-06T11:20:19;46.78;;;41.85;;
53879;SDS011;39791;53.184;5.486;2024-01-06T11:22:46;47.50;;;42.75;;
53879;SDS011;39791;53.184;5.486;2024-01-06T11:25:15;44.67;;;40.08;;
53879;SDS011;39791;53.184;5.486;2024-01-06T11:27:46;45.47;;;40.97;;
53879;SDS011;39791;53.184;5.486;2024-01-06T11:30:19;44.47;;;39.78;;
53879;SDS011;39791;53.184;5.486;2024-01-06T11:32:46;43.67;;;39.03;;
53879;SDS011;39791;53.184;5.486;2024-01-06T11:35:13;42.85;;;37.90;;
53879;SDS011;39791;53.184;5.486;2024-01-06T11:42:46;46.92;;;42.22;;
53879;SDS011;39791;53.184;5.486;2024-01-06T11:45:32;51.00;;;45.60;;
53879;SDS011;39791;53.184;5.486;2024-01-06T11:48:00;48.35;;;43.42;;
53879;SDS011;39791;53.184;5.486;2024-01-06T11:50:28;50.33;;;45.08;;
53879;SDS011;39791;53.184;5.486;2024-01-06T11:52:55;47.70;;;42.80;;
53879;SDS011;39791;53.184;5.486;2024-01-06T11:55:21;50.97;;;46.05;;
53879;SDS011;39791;53.184;5.486;2024-01-06T11:57:47;49.78;;;44.95;;
53879;SDS011;39791;53.184;5.486;2024-01-06T12:00:14;51.25;;;45.90;;
53879;SDS011;39791;53.184;5.486;2024-01-06T12:02:41;51.17;;;46.50;;
53879;SDS011;39791;53.184;5.486;2024-01-06T12:05:12;49.55;;;43.78;;
53879;SDS011;39791;53.184;5.486;2024-01-06T12:07:40;47.83;;;43.63;;
53879;SDS011;39791;53.184;5.486;2024-01-06T12:10:07;52.67;;;47.78;;
53879;SDS011;39791;53.184;5.486;2024-01-06T12:12:33;51.10;;;46.35;;
53879;SDS011;39791;53.184;5.486;2024-01-06T12:14:59;50.33;;;45.25;;
53879;SDS011;39791;53.184;5.486;2024-01-06T12:17:27;49.30;;;44.25;;
53879;SDS011;39791;53.184;5.486;2024-01-06T12:19:54;51.65;;;46.17;;
53879;SDS011;39791;53.184;5.486;2024-01-06T12:22:20;57.25;;;49.03;;
53879;SDS011;39791;53.184;5.486;2024-01-06T12:24:48;55.08;;;49.28;;
53879;SDS011;39791;53.184;5.486;2024-01-06T12:27:16;57.17;;;48.13;;
53879;SDS011;39791;53.184;5.486;2024-01-06T12:29:42;60.53;;;48.55;;
53879;SDS011;39791;53.184;5.486;2024-01-06T12:32:09;65.00;;;50.33;;
53879;SDS011;39791;53.184;5.486;2024-01-06T12:34:35;60.47;;;47.65;;
53879;SDS011;39791;53.184;5.486;2024-01-06T12:37:01;53.35;;;45.75;;
53879;SDS011;39791;53.184;5.486;2024-01-06T12:39:28;60.78;;;49.03;;
53879;SDS011;39791;53.184;5.486;2024-01-06T12:41:55;62.67;;;49.20;;
53879;SDS011;39791;53.184;5.486;2024-01-06T12:44:21;60.28;;;50.20;;
53879;SDS011;39791;53.184;5.486;2024-01-06T12:46:47;62.22;;;48.63;;
53879;SDS011;39791;53.184;5.486;2024-01-06T12:49:13;57.00;;;46.58;;
53879;SDS011;39791;53.184;5.486;2024-01-06T12:51:38;62.13;;;51.58;;
53879;SDS011;39791;53.184;5.486;2024-01-06T12:54:04;56.35;;;49.40;;
53879;SDS011;39791;53.184;5.486;2024-01-06T12:56:30;58.17;;;49.20;;
53879;SDS011;39791;53.184;5.486;2024-01-06T12:58:56;63.38;;;49.17;;
53879;SDS011;39791;53.184;5.486;2024-01-06T13:01:22;60.63;;;50.47;;
53879;SDS011;39791;53.184;5.486;2024-01-06T13:03:47;61.80;;;52.30;;
53879;SDS011;39791;53.184;5.486;2024-01-06T13:06:13;63.63;;;56.95;;
53879;SDS011;39791;53.184;5.486;2024-01-06T13:08:40;55.28;;;49.25;;
53879;SDS011;39791;53.184;5.486;2024-01-06T13:11:07;54.45;;;48.00;;
53879;SDS011;39791;53.184;5.486;2024-01-06T13:13:33;59.67;;;48.65;;
53879;SDS011;39791;53.184;5.486;2024-01-06T13:15:59;57.22;;;49.22;;
53879;SDS011;39791;53.184;5.486;2024-01-06T13:18:26;60.90;;;50.42;;
53879;SDS011;39791;53.184;5.486;2024-01-06T13:20:53;59.90;;;48.72;;
53879;SDS011;39791;53.184;5.486;2024-01-06T13:23:19;58.30;;;49.95;;
53879;SDS011;39791;53.184;5.486;2024-01-06T13:25:44;54.78;;;47.33;;
53879;SDS011;39791;53.184;5.486;2024-01-06T13:28:10;52.03;;;44.90;;
53879;SDS011;39791;53.184;5.486;2024-01-06T13:30:37;53.00;;;47.20;;
53879;SDS011;39791;53.184;5.486;2024-01-06T13:33:04;55.10;;;47.72;;
53879;SDS011;39791;53.184;5.486;2024-01-06T13:35:30;54.88;;;47.78;;
53879;SDS011;39791;53.184;5.486;2024-01-06T13:37:56;54.13;;;47.75;;
53879;SDS011;39791;53.184;5.486;2024-01-06T13:40:22;59.03;;;50.85;;
53879;SDS011;39791;53.184;5.486;2024-01-06T13:42:48;57.38;;;49.95;;
53879;SDS011;39791;53.184;5.486;2024-01-06T13:45:16;60.13;;;53.72;;
53879;SDS011;39791;53.184;5.486;2024-01-06T13:47:42;57.20;;;47.70;;
53879;SDS011;39791;53.184;5.486;2024-01-06T13:50:10;58.72;;;51.25;;
53879;SDS011;39791;53.184;5.486;2024-01-06T13:52:36;55.38;;;49.40;;
53879;SDS011;39791;53.184;5.486;2024-01-06T13:55:02;56.35;;;49.25;;
53879;SDS011;39791;53.184;5.486;2024-01-06T13:57:28;59.78;;;49.72;;
53879;SDS011;39791;53.184;5.486;2024-01-06T13:59:54;54.85;;;46.92;;
53879;SDS011;39791;53.184;5.486;2024-01-06T14:02:19;55.63;;;46.55;;
53879;SDS011;39791;53.184;5.486;2024-01-06T14:04:45;56.55;;;48.45;;
53879;SDS011;39791;53.184;5.486;2024-01-06T14:07:11;56.05;;;46.05;;
53879;SDS011;39791;53.184;5.486;2024-01-06T14:09:36;55.63;;;47.40;;
53879;SDS011;39791;53.184;5.486;2024-01-06T14:12:02;55.40;;;47.15;;
53879;SDS011;39791;53.184;5.486;2024-01-06T14:14:31;50.95;;;44.40;;
53879;SDS011;39791;53.184;5.486;2024-01-06T14:16:57;60.83;;;54.17;;
53879;SDS011;39791;53.184;5.486;2024-01-06T14:19:23;51.20;;;45.22;;
53879;SDS011;39791;53.184;5.486;2024-01-06T14:21:49;53.92;;;47.85;;
53879;SDS011;39791;53.184;5.486;2024-01-06T14:24:15;55.90;;;49.83;;